createdAt,value
2023-06-30T00:02:07.724Z,17.97
2023-06-30T00:04:36.837Z,17.99
2023-06-30T00:07:05.861Z,18.00
2023-06-30T00:09:34.165Z,17.96
2023-06-30T00:12:03.855Z,18.00
2023-06-30T00:14:32.087Z,17.97
2023-06-30T00:17:00.489Z,17.97
2023-06-30T00:19:28.730Z,17.95
2023-06-30T00:21:57.001Z,17.98
2023-06-30T00:24:25.272Z,17.91
2023-06-30T00:26:53.573Z,17.92
2023-06-30T00:29:23.162Z,17.94
2023-06-30T00:31:51.470Z,17.92
2023-06-30T00:34:19.643Z,17.95
2023-06-30T00:36:47.966Z,17.95
2023-06-30T00:39:16.233Z,17.93
2023-06-30T00:41:44.404Z,17.90
2023-06-30T00:44:12.515Z,17.82
2023-06-30T00:46:42.341Z,17.86
2023-06-30T00:49:10.591Z,17.92
2023-06-30T00:51:39.164Z,17.91
2023-06-30T00:54:07.504Z,17.90
2023-06-30T00:56:35.844Z,17.85
2023-06-30T00:59:04.083Z,17.83
2023-06-30T01:01:40.338Z,17.80
2023-06-30T01:04:16.777Z,17.76
2023-06-30T01:06:53.647Z,17.74
2023-06-30T01:09:26.035Z,17.78
2023-06-30T01:11:55.554Z,17.77
2023-06-30T01:14:25.033Z,17.77
2023-06-30T01:16:55.584Z,17.78
2023-06-30T01:19:29.478Z,17.72
2023-06-30T01:22:06.166Z,17.66
2023-06-30T01:24:36.597Z,17.59
2023-06-30T01:27:05.363Z,17.55
2023-06-30T01:29:34.458Z,17.49
2023-06-30T01:32:03.464Z,17.44
2023-06-30T01:34:33.672Z,17.36
2023-06-30T01:37:01.884Z,17.37
2023-06-30T01:39:30.134Z,17.32
2023-06-30T01:41:58.580Z,17.25
2023-06-30T01:44:27.124Z,17.28
2023-06-30T01:46:55.274Z,17.29
2023-06-30T01:49:24.200Z,17.28
2023-06-30T01:51:53.869Z,17.29
2023-06-30T01:54:22.274Z,17.31
2023-06-30T01:56:51.106Z,17.30
2023-06-30T01:59:19.318Z,17.25
2023-06-30T02:01:48.852Z,17.21
2023-06-30T02:04:17.801Z,17.16
2023-06-30T02:06:46.066Z,17.11
2023-06-30T02:09:15.803Z,17.16
2023-06-30T02:11:44.110Z,17.09
2023-06-30T02:14:12.427Z,17.09
2023-06-30T02:16:40.689Z,17.08
2023-06-30T02:19:08.945Z,17.10
2023-06-30T02:21:37.168Z,17.00
2023-06-30T02:24:05.904Z,16.99
2023-06-30T02:26:35.532Z,17.02
2023-06-30T02:29:03.748Z,16.97
2023-06-30T02:31:31.965Z,16.97
2023-06-30T02:34:00.221Z,16.94
2023-06-30T02:36:28.448Z,16.94
2023-06-30T02:38:56.733Z,16.96
2023-06-30T02:41:24.931Z,16.99
2023-06-30T02:43:54.583Z,16.97
2023-06-30T02:46:22.773Z,17.01
2023-06-30T02:48:51.093Z,16.95
2023-06-30T02:51:19.393Z,16.96
2023-06-30T02:53:47.567Z,16.95
2023-06-30T02:56:15.744Z,16.97
2023-06-30T02:58:44.098Z,16.96
2023-06-30T03:01:13.892Z,16.95
2023-06-30T03:03:44.077Z,16.91
2023-06-30T03:06:12.382Z,16.93
2023-06-30T03:08:40.572Z,16.93
2023-06-30T03:11:08.844Z,16.92
2023-06-30T03:13:37.454Z,16.90
2023-06-30T03:16:06.002Z,16.90
2023-06-30T03:18:35.837Z,16.89
2023-06-30T03:21:04.212Z,16.85
2023-06-30T03:23:32.574Z,16.84
2023-06-30T03:26:01.149Z,16.84
2023-06-30T03:28:29.381Z,16.86
2023-06-30T03:30:58.060Z,16.84
2023-06-30T03:33:26.544Z,16.83
2023-06-30T03:35:56.097Z,16.81
2023-06-30T03:38:24.310Z,16.84
2023-06-30T03:40:52.628Z,16.80
2023-06-30T03:43:24.464Z,16.78
2023-06-30T03:45:52.940Z,16.75
2023-06-30T03:48:21.760Z,16.79
2023-06-30T03:50:54.255Z,16.80
2023-06-30T03:53:24.355Z,16.81
2023-06-30T03:55:52.489Z,16.80
2023-06-30T03:58:20.791Z,16.79
2023-06-30T04:00:48.994Z,16.80
2023-06-30T04:03:17.394Z,16.81
2023-06-30T04:05:47.227Z,16.80
2023-06-30T04:08:15.738Z,16.78
2023-06-30T04:10:46.323Z,16.78
2023-06-30T04:13:14.470Z,16.80
2023-06-30T04:15:43.081Z,16.76
2023-06-30T04:18:11.597Z,16.75
2023-06-30T04:20:40.106Z,16.75
2023-06-30T04:23:08.302Z,16.74
2023-06-30T04:25:37.035Z,16.76
2023-06-30T04:28:06.672Z,16.76
2023-06-30T04:30:35.013Z,16.76
2023-06-30T04:33:03.314Z,16.80
2023-06-30T04:35:31.566Z,16.75
2023-06-30T04:37:59.848Z,16.71
2023-06-30T04:40:28.143Z,16.71
2023-06-30T04:42:56.447Z,16.75
2023-06-30T04:45:26.119Z,16.71
2023-06-30T04:47:54.594Z,16.75
2023-06-30T04:50:26.388Z,16.75
2023-06-30T04:52:54.661Z,16.74
2023-06-30T04:55:23.142Z,16.75
2023-06-30T04:57:51.447Z,16.77
2023-06-30T05:00:20.044Z,16.76
2023-06-30T05:02:50.596Z,16.71
2023-06-30T05:05:19.138Z,16.66
2023-06-30T05:07:47.971Z,16.65
2023-06-30T05:10:16.244Z,16.67
2023-06-30T05:12:44.656Z,16.72
2023-06-30T05:15:13.411Z,16.74
2023-06-30T05:17:41.753Z,16.75
2023-06-30T05:20:12.723Z,16.81
2023-06-30T05:22:40.889Z,16.80
2023-06-30T05:25:10.073Z,16.75
2023-06-30T05:27:38.280Z,16.80
2023-06-30T05:30:07.977Z,16.82
2023-06-30T05:32:36.361Z,16.83
2023-06-30T05:35:04.765Z,16.84
2023-06-30T05:37:34.322Z,16.90
2023-06-30T05:40:04.218Z,16.92
2023-06-30T05:42:32.440Z,16.94
2023-06-30T05:45:00.584Z,16.94
2023-06-30T05:47:28.796Z,16.97
2023-06-30T05:49:57.066Z,16.92
2023-06-30T05:52:26.343Z,16.91
2023-06-30T05:54:56.031Z,16.94
2023-06-30T05:57:24.338Z,16.92
2023-06-30T05:59:52.905Z,16.92
2023-06-30T06:02:21.224Z,16.80
2023-06-30T06:04:49.751Z,16.82
2023-06-30T06:07:18.122Z,16.80
2023-06-30T06:09:46.504Z,16.92
2023-06-30T06:12:16.036Z,16.87
2023-06-30T06:14:44.460Z,16.90
2023-06-30T06:17:12.899Z,16.86
2023-06-30T06:19:41.126Z,16.97
2023-06-30T06:22:09.319Z,16.94
2023-06-30T06:24:37.536Z,16.92
2023-06-30T06:27:06.461Z,16.99
2023-06-30T06:29:36.077Z,16.99
2023-06-30T06:32:04.386Z,17.06
2023-06-30T06:34:32.674Z,17.11
2023-06-30T06:37:01.676Z,16.99
2023-06-30T06:39:30.028Z,17.05
2023-06-30T06:41:58.972Z,17.11
2023-06-30T06:44:27.104Z,17.15
2023-06-30T06:47:30.806Z,17.14
2023-06-30T06:50:02.002Z,17.06
2023-06-30T06:52:30.181Z,17.08
2023-06-30T06:54:58.459Z,17.10
2023-06-30T06:57:26.676Z,17.10
2023-06-30T06:59:54.830Z,17.07
2023-06-30T07:02:23.030Z,17.06
2023-06-30T07:04:51.234Z,17.08
2023-06-30T07:07:20.930Z,17.19
2023-06-30T07:09:49.209Z,17.23
2023-06-30T07:12:17.475Z,17.28
2023-06-30T07:14:47.941Z,17.29
2023-06-30T07:17:16.808Z,17.33
2023-06-30T07:19:45.105Z,17.29
2023-06-30T07:22:13.352Z,17.31
2023-06-30T07:24:44.078Z,17.33
2023-06-30T07:27:12.419Z,17.25
2023-06-30T07:29:40.721Z,17.25
2023-06-30T07:32:09.445Z,17.36
2023-06-30T07:34:38.738Z,17.45
2023-06-30T07:37:09.242Z,17.45
2023-06-30T07:39:37.470Z,17.46
2023-06-30T07:42:07.720Z,17.49
2023-06-30T07:44:35.981Z,17.52
2023-06-30T07:47:04.186Z,17.64
2023-06-30T07:49:32.278Z,17.76
2023-06-30T07:52:00.420Z,17.79
2023-06-30T07:54:28.631Z,17.88
2023-06-30T07:56:56.866Z,17.93
2023-06-30T07:59:26.486Z,17.96
2023-06-30T08:01:54.705Z,18.10
2023-06-30T08:04:23.369Z,18.06
2023-06-30T08:06:51.873Z,18.04
2023-06-30T08:09:20.125Z,18.05
2023-06-30T08:11:48.364Z,18.00
2023-06-30T08:14:16.598Z,18.02
2023-06-30T08:16:46.594Z,18.13
2023-06-30T08:19:22.066Z,18.12
2023-06-30T08:22:04.454Z,18.28
2023-06-30T08:24:32.736Z,18.36
2023-06-30T08:27:00.834Z,18.45
2023-06-30T08:29:29.067Z,18.52
2023-06-30T08:31:58.612Z,18.60
2023-06-30T08:34:27.325Z,18.65
2023-06-30T08:36:55.664Z,18.72
2023-06-30T08:39:24.227Z,18.82
2023-06-30T08:41:56.114Z,18.84
2023-06-30T08:44:26.529Z,18.86
2023-06-30T08:46:56.369Z,18.83
2023-06-30T08:49:27.246Z,18.87
2023-06-30T08:51:58.243Z,18.81
2023-06-30T08:54:26.868Z,18.79
2023-06-30T08:56:56.516Z,18.71
2023-06-30T08:59:24.784Z,18.61
2023-06-30T09:01:55.576Z,18.63
2023-06-30T09:04:26.389Z,18.68
2023-06-30T09:06:55.977Z,18.64
2023-06-30T09:09:28.372Z,18.73
2023-06-30T09:11:57.362Z,18.69
2023-06-30T09:14:25.775Z,18.76
2023-06-30T09:16:54.048Z,18.62
2023-06-30T09:19:22.725Z,18.58
2023-06-30T09:21:53.145Z,18.56
2023-06-30T09:24:21.372Z,18.65
2023-06-30T09:26:51.051Z,18.78
2023-06-30T09:29:20.163Z,18.90
2023-06-30T09:31:52.166Z,19.00
2023-06-30T09:34:21.653Z,19.10
2023-06-30T09:36:50.788Z,19.27
2023-06-30T09:39:21.056Z,19.38
2023-06-30T09:41:50.588Z,19.46
2023-06-30T09:44:21.617Z,19.58
2023-06-30T09:46:50.388Z,19.70
2023-06-30T09:49:26.103Z,19.68
2023-06-30T09:51:56.508Z,19.73
2023-06-30T09:54:43.939Z,19.77
2023-06-30T09:57:13.261Z,19.76
2023-06-30T09:59:41.520Z,19.86
2023-06-30T10:02:11.545Z,19.93
2023-06-30T10:04:39.674Z,19.92
2023-06-30T10:07:09.552Z,19.88
2023-06-30T10:09:42.430Z,19.94
2023-06-30T10:12:12.153Z,20.11
2023-06-30T10:14:41.364Z,20.17
2023-06-30T10:17:10.652Z,20.32
2023-06-30T10:19:41.488Z,20.35
2023-06-30T10:22:10.111Z,20.41
2023-06-30T10:24:42.998Z,20.48
2023-06-30T10:27:14.125Z,20.50
2023-06-30T10:29:42.430Z,20.56
2023-06-30T10:32:13.063Z,20.54
2023-06-30T10:34:41.672Z,20.52
2023-06-30T10:37:10.458Z,20.41
2023-06-30T10:39:40.287Z,20.28
2023-06-30T10:42:08.738Z,20.11
2023-06-30T10:44:40.688Z,19.94
2023-06-30T10:47:09.260Z,19.89
2023-06-30T10:49:39.694Z,19.92
2023-06-30T10:52:11.156Z,19.92
2023-06-30T10:54:44.568Z,20.00
2023-06-30T10:57:15.648Z,20.27
2023-06-30T10:59:45.073Z,20.55
2023-06-30T11:02:34.787Z,20.71
2023-06-30T11:05:21.743Z,20.86
2023-06-30T11:07:51.049Z,21.01
2023-06-30T11:10:35.785Z,21.17
2023-06-30T11:13:06.699Z,21.26
2023-06-30T11:15:50.451Z,21.07
2023-06-30T11:18:23.050Z,20.95
2023-06-30T11:21:01.794Z,20.92
2023-06-30T11:23:31.045Z,20.87
2023-06-30T11:26:12.791Z,20.78
2023-06-30T11:28:42.074Z,20.63
2023-06-30T11:31:12.045Z,20.62
2023-06-30T11:33:41.450Z,20.63
2023-06-30T11:36:14.845Z,20.66
2023-06-30T11:38:46.122Z,20.70
2023-06-30T11:41:19.898Z,20.85
2023-06-30T11:43:50.868Z,20.86
2023-06-30T11:46:19.380Z,20.91
2023-06-30T11:48:47.646Z,20.93
2023-06-30T11:51:15.888Z,21.00
2023-06-30T11:53:45.697Z,21.04
2023-06-30T11:56:15.381Z,21.02
2023-06-30T11:58:45.398Z,21.06
2023-06-30T12:01:13.661Z,20.99
2023-06-30T12:03:41.945Z,21.00
2023-06-30T12:06:10.197Z,20.95
2023-06-30T12:08:40.145Z,20.75
2023-06-30T12:11:08.959Z,20.76
2023-06-30T12:13:42.194Z,20.78
2023-06-30T12:16:10.526Z,20.85
2023-06-30T12:18:39.539Z,20.85
2023-06-30T12:21:11.747Z,20.81
2023-06-30T12:23:43.065Z,20.73
2023-06-30T12:26:11.295Z,20.77
2023-06-30T12:28:41.116Z,20.72
2023-06-30T12:31:09.357Z,20.57
2023-06-30T12:33:38.439Z,20.57
2023-06-30T12:36:07.773Z,20.63
2023-06-30T12:38:35.982Z,20.65
2023-06-30T12:41:05.153Z,20.64
2023-06-30T12:43:34.549Z,20.65
2023-06-30T12:46:04.568Z,20.73
2023-06-30T12:48:33.634Z,20.72
2023-06-30T12:51:01.892Z,20.81
2023-06-30T12:53:30.073Z,20.88
2023-06-30T12:55:58.345Z,20.86
2023-06-30T12:58:28.476Z,20.95
2023-06-30T13:01:02.340Z,20.91
2023-06-30T13:03:34.067Z,20.97
2023-06-30T13:06:02.357Z,21.03
2023-06-30T13:08:30.698Z,21.01
2023-06-30T13:10:58.956Z,20.97
2023-06-30T13:13:27.282Z,21.05
2023-06-30T13:15:55.515Z,21.15
2023-06-30T13:18:23.782Z,21.17
2023-06-30T13:20:54.239Z,21.27
2023-06-30T13:23:32.188Z,21.36
2023-06-30T13:26:05.379Z,21.41
2023-06-30T13:28:33.652Z,21.49
2023-06-30T13:31:02.371Z,21.46
2023-06-30T13:33:30.673Z,21.45
2023-06-30T13:36:00.594Z,21.57
2023-06-30T13:38:28.786Z,21.61
2023-06-30T13:40:57.094Z,21.67
2023-06-30T13:43:25.404Z,21.76
2023-06-30T13:45:55.086Z,21.81
2023-06-30T13:48:23.531Z,21.80
2023-06-30T13:50:51.812Z,21.83
2023-06-30T13:53:23.294Z,21.71
2023-06-30T13:55:54.201Z,21.72
2023-06-30T13:58:22.486Z,21.60
2023-06-30T14:00:50.904Z,21.52
2023-06-30T14:03:19.308Z,21.45
2023-06-30T14:05:50.625Z,21.44
2023-06-30T14:08:19.577Z,21.58
2023-06-30T14:10:49.171Z,21.69
2023-06-30T14:13:17.420Z,21.71
2023-06-30T14:15:46.081Z,21.69
2023-06-30T14:18:14.661Z,21.82
2023-06-30T14:20:42.930Z,21.75
2023-06-30T14:23:11.270Z,21.70
2023-06-30T14:25:39.590Z,21.55
2023-06-30T14:28:09.218Z,21.58
2023-06-30T14:30:40.685Z,21.95
2023-06-30T14:33:08.965Z,22.12
2023-06-30T14:35:37.318Z,22.24
2023-06-30T14:38:05.569Z,22.13
2023-06-30T14:40:33.837Z,22.07
2023-06-30T14:43:02.157Z,21.91
2023-06-30T14:45:31.812Z,21.56
2023-06-30T14:48:00.352Z,21.30
2023-06-30T14:50:28.750Z,21.03
2023-06-30T14:52:57.025Z,20.86
2023-06-30T14:55:25.275Z,20.71
2023-06-30T14:57:53.625Z,20.51
2023-06-30T15:00:21.974Z,20.53
2023-06-30T15:02:51.803Z,20.45
2023-06-30T15:05:20.400Z,20.40
2023-06-30T15:07:48.965Z,20.35
2023-06-30T15:10:17.153Z,20.37
2023-06-30T15:12:45.310Z,20.33
2023-06-30T15:15:13.488Z,20.24
2023-06-30T15:17:41.780Z,20.21
2023-06-30T15:20:12.275Z,20.17
2023-06-30T15:22:40.601Z,20.10
2023-06-30T15:25:09.415Z,20.12
2023-06-30T15:27:37.636Z,20.12
2023-06-30T15:30:07.495Z,20.03
2023-06-30T15:32:35.931Z,19.93
2023-06-30T15:35:05.940Z,19.85
2023-06-30T15:37:35.657Z,19.87
2023-06-30T15:40:03.942Z,19.87
2023-06-30T15:42:33.078Z,19.85
2023-06-30T15:45:01.393Z,19.89
2023-06-30T15:47:29.609Z,19.91
2023-06-30T15:49:58.297Z,19.97
2023-06-30T15:52:26.620Z,20.01
2023-06-30T15:55:09.070Z,20.06
2023-06-30T15:57:37.630Z,20.04
2023-06-30T16:00:08.063Z,20.00
2023-06-30T16:02:39.580Z,19.92
2023-06-30T16:05:09.993Z,19.89
2023-06-30T16:07:38.535Z,19.75
2023-06-30T16:10:08.831Z,19.65
2023-06-30T16:12:37.233Z,19.63
2023-06-30T16:15:08.921Z,19.66
2023-06-30T16:17:37.638Z,19.64
2023-06-30T16:20:06.809Z,19.61
2023-06-30T16:22:35.266Z,19.65
2023-06-30T16:25:03.547Z,19.66
2023-06-30T16:27:33.418Z,19.71
2023-06-30T16:30:24.825Z,19.79
2023-06-30T16:32:56.100Z,19.80
2023-06-30T16:35:25.863Z,19.81
2023-06-30T16:37:54.420Z,19.87
2023-06-30T16:40:22.948Z,19.91
2023-06-30T16:42:52.541Z,19.92
2023-06-30T16:45:20.935Z,19.94
2023-06-30T16:47:49.317Z,20.01
2023-06-30T16:50:18.244Z,20.02
2023-06-30T16:52:46.788Z,20.09
2023-06-30T16:55:15.199Z,20.19
2023-06-30T16:57:44.822Z,20.29
2023-06-30T17:00:15.601Z,20.29
2023-06-30T17:02:44.299Z,20.34
2023-06-30T17:05:14.932Z,20.33
2023-06-30T17:07:43.130Z,20.36
2023-06-30T17:10:12.136Z,20.37
2023-06-30T17:12:40.666Z,20.41
2023-06-30T17:15:10.787Z,20.38
2023-06-30T17:17:40.383Z,20.41
2023-06-30T17:20:09.884Z,20.47
2023-06-30T17:22:38.577Z,20.48
2023-06-30T17:25:08.050Z,20.44
2023-06-30T17:27:36.288Z,20.43
2023-06-30T17:30:04.725Z,20.35
2023-06-30T17:32:33.000Z,20.33
2023-06-30T17:35:02.619Z,20.27
2023-06-30T17:37:30.883Z,20.15
2023-06-30T17:39:59.125Z,20.12
2023-06-30T17:42:27.478Z,20.11
2023-06-30T17:44:55.734Z,20.13
2023-06-30T17:47:24.007Z,20.05
2023-06-30T17:49:52.323Z,20.06
2023-06-30T17:52:22.144Z,19.99
2023-06-30T17:54:50.369Z,19.94
2023-06-30T17:57:18.586Z,19.87
2023-06-30T17:59:46.687Z,19.81
2023-06-30T18:02:14.867Z,19.73
2023-06-30T18:04:43.232Z,19.72
2023-06-30T18:07:13.464Z,19.61
2023-06-30T18:09:44.642Z,19.49
2023-06-30T18:12:14.009Z,19.37
2023-06-30T18:14:43.761Z,19.38
2023-06-30T18:17:11.975Z,19.30
2023-06-30T18:19:42.056Z,19.36
2023-06-30T18:22:10.676Z,19.28
2023-06-30T18:24:38.820Z,19.31
2023-06-30T18:27:08.629Z,19.32
2023-06-30T18:29:38.804Z,19.33
2023-06-30T18:32:08.389Z,19.40
2023-06-30T18:34:36.898Z,19.45
2023-06-30T18:37:08.499Z,19.52
2023-06-30T18:39:36.884Z,19.43
2023-06-30T18:42:05.475Z,19.45
2023-06-30T18:44:36.329Z,19.51
2023-06-30T18:47:04.909Z,19.50
2023-06-30T18:49:33.180Z,19.46
2023-06-30T18:52:01.493Z,19.40
2023-06-30T18:54:29.808Z,19.39
2023-06-30T18:56:58.554Z,19.40
2023-06-30T18:59:26.827Z,19.44
2023-06-30T19:01:56.669Z,19.40
2023-06-30T19:04:25.101Z,19.39
2023-06-30T19:06:53.448Z,19.37
2023-06-30T19:09:21.585Z,19.41
2023-06-30T19:11:49.810Z,19.34
2023-06-30T19:14:18.022Z,19.31
2023-06-30T19:16:46.303Z,19.26
2023-06-30T19:19:16.297Z,19.24
2023-06-30T19:21:44.531Z,19.18
2023-06-30T19:24:12.857Z,19.16
2023-06-30T19:26:41.055Z,19.12
2023-06-30T19:29:09.262Z,19.11
2023-06-30T19:31:37.678Z,19.07
2023-06-30T19:34:06.016Z,19.06
2023-06-30T19:36:37.335Z,19.05
2023-06-30T19:39:05.962Z,19.03
2023-06-30T19:41:34.258Z,19.05
2023-06-30T19:44:02.639Z,19.05
2023-06-30T19:46:32.550Z,19.01
2023-06-30T19:49:00.833Z,18.97
2023-06-30T19:51:29.057Z,18.95
2023-06-30T19:53:58.587Z,18.93
2023-06-30T19:56:26.774Z,18.82
2023-06-30T19:58:55.042Z,18.86
2023-06-30T20:01:26.858Z,18.85
2023-06-30T20:03:55.845Z,18.79
2023-06-30T20:06:24.280Z,18.82
2023-06-30T20:08:52.407Z,18.81
2023-06-30T20:11:22.082Z,18.79
2023-06-30T20:13:50.256Z,18.76
2023-06-30T20:16:18.542Z,18.81
2023-06-30T20:18:46.800Z,18.71
2023-06-30T20:21:15.011Z,18.65
2023-06-30T20:23:43.156Z,18.61
2023-06-30T20:26:11.389Z,18.52
2023-06-30T20:28:40.999Z,18.46
2023-06-30T20:31:09.318Z,18.42
2023-06-30T20:33:37.910Z,18.33
2023-06-30T20:36:06.387Z,18.32
2023-06-30T20:38:34.693Z,18.32
2023-06-30T20:41:02.982Z,18.26
2023-06-30T20:43:31.364Z,18.18
2023-06-30T20:46:01.024Z,18.19
2023-06-30T20:48:29.420Z,18.24
2023-06-30T20:50:57.629Z,18.17
2023-06-30T20:53:25.846Z,18.13
2023-06-30T20:55:56.236Z,18.15
2023-06-30T20:58:24.425Z,18.08
2023-06-30T21:00:52.675Z,18.05
2023-06-30T21:03:22.501Z,18.02
2023-06-30T21:05:50.891Z,17.97
2023-06-30T21:08:19.130Z,17.96
2023-06-30T21:10:47.499Z,17.95
2023-06-30T21:13:16.048Z,17.93
2023-06-30T21:15:44.319Z,17.87
2023-06-30T21:18:12.632Z,17.91
2023-06-30T21:20:42.286Z,17.92
2023-06-30T21:23:10.499Z,17.96
2023-06-30T21:25:39.308Z,17.95
2023-06-30T21:28:08.509Z,17.92
2023-06-30T21:30:36.763Z,17.90
2023-06-30T21:33:05.151Z,17.94
2023-06-30T21:35:33.857Z,17.94
2023-06-30T21:38:03.523Z,17.90
2023-06-30T21:40:31.701Z,17.94
2023-06-30T21:42:59.970Z,17.84
2023-06-30T21:45:28.086Z,17.76
2023-06-30T21:47:56.402Z,17.77
2023-06-30T21:50:24.646Z,17.78
2023-06-30T21:52:52.926Z,17.73
2023-06-30T21:55:22.859Z,17.80
2023-06-30T21:57:51.175Z,17.81
2023-06-30T22:00:19.994Z,17.81
2023-06-30T22:02:57.126Z,17.78
2023-06-30T22:05:26.213Z,17.76
2023-06-30T22:07:55.638Z,17.72
2023-06-30T22:10:25.408Z,17.70
2023-06-30T22:12:53.627Z,17.67
2023-06-30T22:15:23.242Z,17.66
2023-06-30T22:17:52.857Z,17.67
2023-06-30T22:20:22.975Z,17.64
2023-06-30T22:22:51.216Z,17.68
2023-06-30T22:25:31.434Z,17.66
2023-06-30T22:28:03.538Z,17.63
2023-06-30T22:30:31.767Z,17.63
2023-06-30T22:33:00.257Z,17.61
2023-06-30T22:35:28.563Z,17.58
2023-06-30T22:37:56.793Z,17.63
2023-06-30T22:40:24.907Z,17.61
2023-06-30T22:42:53.085Z,17.65
2023-06-30T22:45:22.939Z,17.62
2023-06-30T22:47:51.153Z,17.62
2023-06-30T22:50:19.499Z,17.66
2023-06-30T22:52:47.767Z,17.64
2023-06-30T22:55:16.019Z,17.62
2023-06-30T22:57:44.278Z,17.67
2023-06-30T23:00:13.533Z,17.58
2023-06-30T23:02:43.309Z,17.62
2023-06-30T23:05:11.688Z,17.63
2023-06-30T23:07:39.947Z,17.61
2023-06-30T23:10:09.754Z,17.66
2023-06-30T23:12:38.445Z,17.60
2023-06-30T23:15:07.549Z,17.57
2023-06-30T23:17:35.948Z,17.56
2023-06-30T23:20:06.780Z,17.50
2023-06-30T23:22:35.028Z,17.46
2023-06-30T23:25:03.205Z,17.38
2023-06-30T23:27:31.437Z,17.36
2023-06-30T23:29:59.763Z,17.32
2023-06-30T23:32:27.972Z,17.24
2023-06-30T23:34:56.143Z,17.19
2023-06-30T23:37:25.780Z,17.21
2023-06-30T23:39:53.975Z,17.19
2023-06-30T23:42:22.262Z,17.14
2023-06-30T23:44:50.567Z,17.18
2023-06-30T23:47:19.094Z,17.11
2023-06-30T23:49:48.798Z,17.17
2023-06-30T23:52:17.772Z,17.15
2023-06-30T23:54:47.426Z,17.11
2023-06-30T23:57:15.584Z,17.18
2023-06-30T23:59:43.836Z,17.19
